Terminal Aerodrome Forecast
Issued by NWS Portland, OR

Home | Current Version | Previous Version | Text Only | Print | Product List | Glossary On
Versions: 1 2 3 4 5 6 7 8 9 10 11 12 13
000
FTUS46 KPQR 231144
TAFHIO
TAF
KHIO 231144Z 2312/2412 VRB03KT P6SM SCT300
     FM232200 07013G21KT P6SM SCT300
     FM240300 09008KT P6SM SCT300=

USA.gov is the U.S. government's official web portal to all federal, state and local government web resources and services.